sensor_id;sensor_type;location;lat;lon;timestamp;P1;durP1;ratioP1;P2;durP2;ratioP2
1082;SDS011;530;51.448;7.238;2023-03-20T00:00:56;26.67;;;19.00;;
1082;SDS011;530;51.448;7.238;2023-03-20T00:03:23;30.40;;;19.43;;
1082;SDS011;530;51.448;7.238;2023-03-20T00:05:49;27.00;;;18.23;;
1082;SDS011;530;51.448;7.238;2023-03-20T00:08:15;25.13;;;18.13;;
1082;SDS011;530;51.448;7.238;2023-03-20T00:10:42;26.07;;;18.50;;
1082;SDS011;530;51.448;7.238;2023-03-20T00:13:26;24.93;;;17.87;;
1082;SDS011;530;51.448;7.238;2023-03-20T00:15:52;23.27;;;17.07;;
1082;SDS011;530;51.448;7.238;2023-03-20T00:18:19;24.30;;;17.50;;
1082;SDS011;530;51.448;7.238;2023-03-20T00:20:48;22.43;;;16.70;;
1082;SDS011;530;51.448;7.238;2023-03-20T00:23:15;24.10;;;17.90;;
1082;SDS011;530;51.448;7.238;2023-03-20T00:25:41;24.87;;;17.20;;
1082;SDS011;530;51.448;7.238;2023-03-20T00:30:56;23.50;;;16.90;;
1082;SDS011;530;51.448;7.238;2023-03-20T00:33:22;27.20;;;18.40;;
1082;SDS011;530;51.448;7.238;2023-03-20T00:35:48;26.30;;;18.60;;
1082;SDS011;530;51.448;7.238;2023-03-20T00:38:13;26.53;;;18.40;;
1082;SDS011;530;51.448;7.238;2023-03-20T00:40:39;28.77;;;19.67;;
1082;SDS011;530;51.448;7.238;2023-03-20T00:43:05;25.60;;;20.00;;
1082;SDS011;530;51.448;7.238;2023-03-20T00:45:31;27.33;;;20.73;;
1082;SDS011;530;51.448;7.238;2023-03-20T00:47:59;25.67;;;18.83;;
1082;SDS011;530;51.448;7.238;2023-03-20T00:50:26;27.43;;;19.83;;
1082;SDS011;530;51.448;7.238;2023-03-20T00:52:54;24.27;;;17.73;;
1082;SDS011;530;51.448;7.238;2023-03-20T00:55:21;25.93;;;17.00;;
1082;SDS011;530;51.448;7.238;2023-03-20T00:57:49;24.60;;;17.27;;
1082;SDS011;530;51.448;7.238;2023-03-20T01:00:38;21.23;;;16.17;;
1082;SDS011;530;51.448;7.238;2023-03-20T01:03:16;18.93;;;14.10;;
1082;SDS011;530;51.448;7.238;2023-03-20T01:05:47;21.03;;;15.30;;
1082;SDS011;530;51.448;7.238;2023-03-20T01:08:14;18.87;;;14.53;;
1082;SDS011;530;51.448;7.238;2023-03-20T01:10:45;22.70;;;14.97;;
1082;SDS011;530;51.448;7.238;2023-03-20T01:13:20;20.90;;;15.50;;
1082;SDS011;530;51.448;7.238;2023-03-20T01:15:51;19.63;;;13.93;;
1082;SDS011;530;51.448;7.238;2023-03-20T01:18:18;17.13;;;14.50;;
1082;SDS011;530;51.448;7.238;2023-03-20T01:20:45;20.60;;;14.33;;
1082;SDS011;530;51.448;7.238;2023-03-20T01:23:10;21.60;;;14.87;;
1082;SDS011;530;51.448;7.238;2023-03-20T01:25:36;17.47;;;13.80;;
1082;SDS011;530;51.448;7.238;2023-03-20T01:28:03;19.30;;;14.33;;
1082;SDS011;530;51.448;7.238;2023-03-20T01:30:46;22.17;;;14.77;;
1082;SDS011;530;51.448;7.238;2023-03-20T01:33:17;19.03;;;15.50;;
1082;SDS011;530;51.448;7.238;2023-03-20T01:35:44;19.10;;;14.20;;
1082;SDS011;530;51.448;7.238;2023-03-20T01:38:17;18.07;;;13.40;;
1082;SDS011;530;51.448;7.238;2023-03-20T01:40:46;17.53;;;13.80;;
1082;SDS011;530;51.448;7.238;2023-03-20T01:43:22;15.33;;;11.50;;
1082;SDS011;530;51.448;7.238;2023-03-20T01:45:52;16.33;;;12.27;;
1082;SDS011;530;51.448;7.238;2023-03-20T01:48:19;16.10;;;11.83;;
1082;SDS011;530;51.448;7.238;2023-03-20T01:50:47;20.00;;;13.43;;
1082;SDS011;530;51.448;7.238;2023-03-20T01:53:18;19.07;;;14.53;;
1082;SDS011;530;51.448;7.238;2023-03-20T01:55:47;18.67;;;13.63;;
1082;SDS011;530;51.448;7.238;2023-03-20T01:58:21;18.10;;;13.70;;
1082;SDS011;530;51.448;7.238;2023-03-20T02:00:49;16.73;;;12.20;;
1082;SDS011;530;51.448;7.238;2023-03-20T02:03:15;15.07;;;10.87;;
1082;SDS011;530;51.448;7.238;2023-03-20T02:05:43;16.00;;;11.90;;
1082;SDS011;530;51.448;7.238;2023-03-20T02:08:23;16.20;;;10.93;;
1082;SDS011;530;51.448;7.238;2023-03-20T02:10:52;14.73;;;10.67;;
1082;SDS011;530;51.448;7.238;2023-03-20T02:13:19;14.27;;;10.97;;
1082;SDS011;530;51.448;7.238;2023-03-20T02:15:57;14.50;;;11.03;;
1082;SDS011;530;51.448;7.238;2023-03-20T02:18:23;13.63;;;10.67;;
1082;SDS011;530;51.448;7.238;2023-03-20T02:20:57;19.83;;;12.13;;
1082;SDS011;530;51.448;7.238;2023-03-20T02:29:30;15.03;;;11.20;;
1082;SDS011;530;51.448;7.238;2023-03-20T02:32:41;14.13;;;10.50;;
1082;SDS011;530;51.448;7.238;2023-03-20T02:40:59;14.00;;;9.43;;
1082;SDS011;530;51.448;7.238;2023-03-20T02:46:18;12.60;;;9.13;;
1082;SDS011;530;51.448;7.238;2023-03-20T02:52:32;12.10;;;8.67;;
1082;SDS011;530;51.448;7.238;2023-03-20T03:00:27;10.87;;;7.93;;
1082;SDS011;530;51.448;7.238;2023-03-20T03:05:56;10.27;;;8.00;;
1082;SDS011;530;51.448;7.238;2023-03-20T03:08:27;10.00;;;6.90;;
1082;SDS011;530;51.448;7.238;2023-03-20T03:10:58;8.30;;;6.33;;
1082;SDS011;530;51.448;7.238;2023-03-20T03:13:30;11.33;;;7.53;;
1082;SDS011;530;51.448;7.238;2023-03-20T03:16:02;8.20;;;6.60;;
1082;SDS011;530;51.448;7.238;2023-03-20T03:18:33;9.07;;;6.70;;
1082;SDS011;530;51.448;7.238;2023-03-20T03:21:01;9.60;;;6.93;;
1082;SDS011;530;51.448;7.238;2023-03-20T03:25:58;9.10;;;7.77;;
1082;SDS011;530;51.448;7.238;2023-03-20T03:28:28;9.87;;;6.77;;
1082;SDS011;530;51.448;7.238;2023-03-20T03:31:02;8.80;;;6.37;;
1082;SDS011;530;51.448;7.238;2023-03-20T03:33:34;7.30;;;5.87;;
1082;SDS011;530;51.448;7.238;2023-03-20T03:36:11;10.40;;;5.93;;
1082;SDS011;530;51.448;7.238;2023-03-20T03:38:58;8.60;;;6.50;;
1082;SDS011;530;51.448;7.238;2023-03-20T03:41:35;8.47;;;6.83;;
1082;SDS011;530;51.448;7.238;2023-03-20T03:44:13;7.70;;;5.80;;
1082;SDS011;530;51.448;7.238;2023-03-20T03:47:06;8.37;;;6.93;;
1082;SDS011;530;51.448;7.238;2023-03-20T03:49:49;10.57;;;6.73;;
1082;SDS011;530;51.448;7.238;2023-03-20T03:52:21;11.70;;;8.33;;
1082;SDS011;530;51.448;7.238;2023-03-20T03:54:52;10.40;;;7.63;;
1082;SDS011;530;51.448;7.238;2023-03-20T03:57:28;10.67;;;8.10;;
1082;SDS011;530;51.448;7.238;2023-03-20T04:00:05;12.00;;;8.20;;
1082;SDS011;530;51.448;7.238;2023-03-20T04:02:35;10.33;;;7.40;;
1082;SDS011;530;51.448;7.238;2023-03-20T04:05:02;13.20;;;8.77;;
1082;SDS011;530;51.448;7.238;2023-03-20T04:07:31;11.07;;;8.03;;
1082;SDS011;530;51.448;7.238;2023-03-20T04:09:56;10.40;;;8.03;;
1082;SDS011;530;51.448;7.238;2023-03-20T04:14:59;11.70;;;8.30;;
1082;SDS011;530;51.448;7.238;2023-03-20T04:17:25;14.70;;;8.50;;
1082;SDS011;530;51.448;7.238;2023-03-20T04:19:51;11.73;;;7.83;;
1082;SDS011;530;51.448;7.238;2023-03-20T04:22:17;11.83;;;9.50;;
1082;SDS011;530;51.448;7.238;2023-03-20T04:24:42;13.47;;;9.37;;
1082;SDS011;530;51.448;7.238;2023-03-20T04:27:08;11.93;;;8.97;;
1082;SDS011;530;51.448;7.238;2023-03-20T04:29:34;11.10;;;7.93;;
1082;SDS011;530;51.448;7.238;2023-03-20T04:32:00;13.83;;;10.20;;
1082;SDS011;530;51.448;7.238;2023-03-20T04:34:26;12.30;;;8.97;;
1082;SDS011;530;51.448;7.238;2023-03-20T04:36:51;13.17;;;9.17;;
1082;SDS011;530;51.448;7.238;2023-03-20T04:39:17;12.90;;;9.80;;
1082;SDS011;530;51.448;7.238;2023-03-20T04:41:43;12.23;;;8.67;;
1082;SDS011;530;51.448;7.238;2023-03-20T04:44:08;16.17;;;9.87;;
1082;SDS011;530;51.448;7.238;2023-03-20T04:46:34;15.67;;;11.23;;
1082;SDS011;530;51.448;7.238;2023-03-20T04:49:00;15.13;;;10.40;;
1082;SDS011;530;51.448;7.238;2023-03-20T04:51:25;13.17;;;9.40;;
1082;SDS011;530;51.448;7.238;2023-03-20T04:53:51;18.30;;;11.40;;
1082;SDS011;530;51.448;7.238;2023-03-20T04:56:17;14.87;;;9.50;;
1082;SDS011;530;51.448;7.238;2023-03-20T04:58:42;15.40;;;10.07;;
1082;SDS011;530;51.448;7.238;2023-03-20T05:01:08;15.57;;;10.50;;
1082;SDS011;530;51.448;7.238;2023-03-20T05:03:33;17.27;;;12.00;;
1082;SDS011;530;51.448;7.238;2023-03-20T05:05:59;16.80;;;11.20;;
1082;SDS011;530;51.448;7.238;2023-03-20T05:08:25;15.13;;;10.50;;
1082;SDS011;530;51.448;7.238;2023-03-20T05:10:51;15.83;;;10.03;;
1082;SDS011;530;51.448;7.238;2023-03-20T05:13:17;16.73;;;10.03;;
1082;SDS011;530;51.448;7.238;2023-03-20T05:15:43;15.50;;;10.60;;
1082;SDS011;530;51.448;7.238;2023-03-20T05:18:08;14.47;;;10.40;;
1082;SDS011;530;51.448;7.238;2023-03-20T05:20:34;15.40;;;10.47;;
1082;SDS011;530;51.448;7.238;2023-03-20T05:23:01;12.63;;;9.30;;
1082;SDS011;530;51.448;7.238;2023-03-20T05:25:27;14.97;;;10.70;;
1082;SDS011;530;51.448;7.238;2023-03-20T05:27:53;14.70;;;10.40;;
1082;SDS011;530;51.448;7.238;2023-03-20T05:30:18;15.23;;;10.23;;
1082;SDS011;530;51.448;7.238;2023-03-20T05:32:44;15.87;;;10.60;;
1082;SDS011;530;51.448;7.238;2023-03-20T05:35:13;15.47;;;10.27;;
1082;SDS011;530;51.448;7.238;2023-03-20T05:37:38;14.33;;;9.80;;
1082;SDS011;530;51.448;7.238;2023-03-20T05:40:04;14.57;;;10.47;;
1082;SDS011;530;51.448;7.238;2023-03-20T05:42:31;15.30;;;10.57;;
1082;SDS011;530;51.448;7.238;2023-03-20T05:44:57;14.57;;;10.30;;
1082;SDS011;530;51.448;7.238;2023-03-20T05:47:22;16.17;;;10.00;;
1082;SDS011;530;51.448;7.238;2023-03-20T05:49:48;16.17;;;11.27;;
1082;SDS011;530;51.448;7.238;2023-03-20T05:52:13;15.50;;;10.80;;
1082;SDS011;530;51.448;7.238;2023-03-20T05:54:39;16.20;;;10.27;;
1082;SDS011;530;51.448;7.238;2023-03-20T05:57:05;19.30;;;11.60;;
1082;SDS011;530;51.448;7.238;2023-03-20T05:59:30;15.03;;;10.13;;
1082;SDS011;530;51.448;7.238;2023-03-20T06:01:56;16.33;;;10.63;;
1082;SDS011;530;51.448;7.238;2023-03-20T06:04:22;16.43;;;11.93;;
1082;SDS011;530;51.448;7.238;2023-03-20T06:06:47;16.53;;;10.07;;
1082;SDS011;530;51.448;7.238;2023-03-20T06:09:13;19.20;;;11.40;;
1082;SDS011;530;51.448;7.238;2023-03-20T06:11:38;15.00;;;9.67;;
1082;SDS011;530;51.448;7.238;2023-03-20T06:14:04;16.07;;;11.00;;
1082;SDS011;530;51.448;7.238;2023-03-20T06:16:30;16.63;;;9.93;;
1082;SDS011;530;51.448;7.238;2023-03-20T06:18:55;18.17;;;11.30;;
1082;SDS011;530;51.448;7.238;2023-03-20T06:21:22;14.73;;;10.70;;
1082;SDS011;530;51.448;7.238;2023-03-20T06:23:49;16.20;;;11.50;;
1082;SDS011;530;51.448;7.238;2023-03-20T06:26:15;15.53;;;11.30;;
1082;SDS011;530;51.448;7.238;2023-03-20T06:28:40;14.57;;;10.40;;
1082;SDS011;530;51.448;7.238;2023-03-20T06:31:06;16.17;;;10.90;;
1082;SDS011;530;51.448;7.238;2023-03-20T06:33:33;14.50;;;9.93;;
1082;SDS011;530;51.448;7.238;2023-03-20T06:35:59;16.63;;;10.43;;
1082;SDS011;530;51.448;7.238;2023-03-20T06:38:25;14.77;;;10.40;;
1082;SDS011;530;51.448;7.238;2023-03-20T06:40:51;14.33;;;9.90;;
1082;SDS011;530;51.448;7.238;2023-03-20T06:43:16;14.77;;;9.83;;
1082;SDS011;530;51.448;7.238;2023-03-20T06:45:43;13.67;;;9.20;;
1082;SDS011;530;51.448;7.238;2023-03-20T06:48:09;13.73;;;10.00;;
1082;SDS011;530;51.448;7.238;2023-03-20T06:50:35;13.40;;;9.43;;
1082;SDS011;530;51.448;7.238;2023-03-20T06:53:01;14.50;;;9.67;;
1082;SDS011;530;51.448;7.238;2023-03-20T06:55:27;12.40;;;8.60;;
1082;SDS011;530;51.448;7.238;2023-03-20T06:57:53;13.00;;;9.03;;
1082;SDS011;530;51.448;7.238;2023-03-20T07:00:19;12.30;;;8.83;;
1082;SDS011;530;51.448;7.238;2023-03-20T07:02:45;11.90;;;8.20;;
1082;SDS011;530;51.448;7.238;2023-03-20T07:05:13;13.90;;;9.50;;
1082;SDS011;530;51.448;7.238;2023-03-20T07:07:39;13.20;;;8.60;;
1082;SDS011;530;51.448;7.238;2023-03-20T07:10:05;14.13;;;8.97;;
1082;SDS011;530;51.448;7.238;2023-03-20T07:12:32;15.50;;;9.27;;
1082;SDS011;530;51.448;7.238;2023-03-20T07:14:58;11.23;;;8.77;;
1082;SDS011;530;51.448;7.238;2023-03-20T07:17:24;13.20;;;8.27;;
1082;SDS011;530;51.448;7.238;2023-03-20T07:19:49;14.53;;;8.80;;
1082;SDS011;530;51.448;7.238;2023-03-20T07:22:26;16.87;;;9.00;;
1082;SDS011;530;51.448;7.238;2023-03-20T07:24:53;10.70;;;7.57;;
1082;SDS011;530;51.448;7.238;2023-03-20T07:27:19;13.17;;;8.73;;
1082;SDS011;530;51.448;7.238;2023-03-20T07:29:45;13.67;;;8.70;;
1082;SDS011;530;51.448;7.238;2023-03-20T07:32:10;12.03;;;8.53;;
1082;SDS011;530;51.448;7.238;2023-03-20T07:34:36;12.90;;;8.77;;
1082;SDS011;530;51.448;7.238;2023-03-20T07:37:02;13.30;;;8.43;;
1082;SDS011;530;51.448;7.238;2023-03-20T07:39:28;10.30;;;7.43;;
1082;SDS011;530;51.448;7.238;2023-03-20T07:41:54;11.47;;;7.87;;
1082;SDS011;530;51.448;7.238;2023-03-20T07:44:20;10.53;;;7.57;;
1082;SDS011;530;51.448;7.238;2023-03-20T07:46:46;11.47;;;7.27;;
1082;SDS011;530;51.448;7.238;2023-03-20T07:49:12;7.70;;;5.80;;
1082;SDS011;530;51.448;7.238;2023-03-20T07:51:40;9.10;;;6.50;;
1082;SDS011;530;51.448;7.238;2023-03-20T07:54:06;10.10;;;6.00;;
1082;SDS011;530;51.448;7.238;2023-03-20T07:56:31;14.00;;;6.87;;
1082;SDS011;530;51.448;7.238;2023-03-20T07:58:57;8.20;;;6.30;;
1082;SDS011;530;51.448;7.238;2023-03-20T08:01:23;8.47;;;6.33;;
1082;SDS011;530;51.448;7.238;2023-03-20T08:03:48;8.53;;;5.83;;
1082;SDS011;530;51.448;7.238;2023-03-20T08:06:14;7.97;;;6.30;;
1082;SDS011;530;51.448;7.238;2023-03-20T08:08:40;9.13;;;5.77;;
1082;SDS011;530;51.448;7.238;2023-03-20T08:11:06;9.00;;;6.10;;
1082;SDS011;530;51.448;7.238;2023-03-20T08:13:31;7.53;;;5.83;;
1082;SDS011;530;51.448;7.238;2023-03-20T08:15:57;9.73;;;6.13;;
1082;SDS011;530;51.448;7.238;2023-03-20T08:18:23;8.40;;;6.20;;
1082;SDS011;530;51.448;7.238;2023-03-20T08:20:48;8.23;;;5.33;;
1082;SDS011;530;51.448;7.238;2023-03-20T08:23:15;8.20;;;5.40;;
1082;SDS011;530;51.448;7.238;2023-03-20T08:25:45;10.27;;;5.73;;
1082;SDS011;530;51.448;7.238;2023-03-20T08:28:15;8.80;;;6.30;;
1082;SDS011;530;51.448;7.238;2023-03-20T08:30:41;10.93;;;5.83;;
1082;SDS011;530;51.448;7.238;2023-03-20T08:33:07;12.43;;;7.27;;
1082;SDS011;530;51.448;7.238;2023-03-20T08:35:33;10.33;;;6.10;;
1082;SDS011;530;51.448;7.238;2023-03-20T08:37:59;10.90;;;6.10;;
1082;SDS011;530;51.448;7.238;2023-03-20T08:40:25;10.07;;;6.70;;
1082;SDS011;530;51.448;7.238;2023-03-20T08:42:51;10.60;;;6.57;;
1082;SDS011;530;51.448;7.238;2023-03-20T08:45:17;12.90;;;7.93;;
1082;SDS011;530;51.448;7.238;2023-03-20T08:47:42;10.23;;;7.40;;
1082;SDS011;530;51.448;7.238;2023-03-20T08:50:12;12.73;;;7.20;;
1082;SDS011;530;51.448;7.238;2023-03-20T08:52:37;8.53;;;6.60;;
1082;SDS011;530;51.448;7.238;2023-03-20T08:55:08;9.37;;;6.47;;
1082;SDS011;530;51.448;7.238;2023-03-20T08:57:35;9.30;;;6.00;;
1082;SDS011;530;51.448;7.238;2023-03-20T09:00:02;9.43;;;7.30;;
1082;SDS011;530;51.448;7.238;2023-03-20T09:02:29;10.00;;;6.67;;
1082;SDS011;530;51.448;7.238;2023-03-20T09:04:55;10.67;;;5.70;;
1082;SDS011;530;51.448;7.238;2023-03-20T09:07:21;8.50;;;6.20;;
1082;SDS011;530;51.448;7.238;2023-03-20T09:09:46;9.30;;;6.30;;
1082;SDS011;530;51.448;7.238;2023-03-20T09:12:12;10.83;;;5.67;;
1082;SDS011;530;51.448;7.238;2023-03-20T09:14:39;8.47;;;5.77;;
1082;SDS011;530;51.448;7.238;2023-03-20T09:17:05;15.07;;;7.00;;
1082;SDS011;530;51.448;7.238;2023-03-20T09:19:32;10.57;;;6.30;;
1082;SDS011;530;51.448;7.238;2023-03-20T09:21:59;10.67;;;7.67;;
1082;SDS011;530;51.448;7.238;2023-03-20T09:24:25;8.90;;;5.87;;
1082;SDS011;530;51.448;7.238;2023-03-20T09:26:51;9.90;;;5.77;;
1082;SDS011;530;51.448;7.238;2023-03-20T09:29:16;8.87;;;5.80;;
1082;SDS011;530;51.448;7.238;2023-03-20T09:31:42;6.23;;;4.83;;
1082;SDS011;530;51.448;7.238;2023-03-20T09:34:08;9.37;;;6.00;;
1082;SDS011;530;51.448;7.238;2023-03-20T09:36:34;8.70;;;5.67;;
1082;SDS011;530;51.448;7.238;2023-03-20T09:38:59;7.00;;;5.97;;
1082;SDS011;530;51.448;7.238;2023-03-20T09:41:25;10.23;;;6.00;;
1082;SDS011;530;51.448;7.238;2023-03-20T09:49:42;8.77;;;5.53;;
1082;SDS011;530;51.448;7.238;2023-03-20T09:55:03;9.63;;;6.10;;
1082;SDS011;530;51.448;7.238;2023-03-20T09:57:38;9.20;;;5.13;;
1082;SDS011;530;51.448;7.238;2023-03-20T10:00:15;7.47;;;5.63;;
1082;SDS011;530;51.448;7.238;2023-03-20T10:05:42;7.90;;;5.87;;
1082;SDS011;530;51.448;7.238;2023-03-20T10:08:12;6.70;;;5.30;;
1082;SDS011;530;51.448;7.238;2023-03-20T10:21:50;9.40;;;4.83;;
1082;SDS011;530;51.448;7.238;2023-03-20T10:24:33;8.47;;;4.60;;
1082;SDS011;530;51.448;7.238;2023-03-20T10:32:36;6.80;;;3.87;;
1082;SDS011;530;51.448;7.238;2023-03-20T10:35:30;6.00;;;4.50;;
1082;SDS011;530;51.448;7.238;2023-03-20T10:38:11;7.60;;;4.57;;
1082;SDS011;530;51.448;7.238;2023-03-20T10:40:44;4.53;;;3.17;;
1082;SDS011;530;51.448;7.238;2023-03-20T10:45:40;5.20;;;2.50;;
1082;SDS011;530;51.448;7.238;2023-03-20T10:48:22;3.37;;;2.07;;
1082;SDS011;530;51.448;7.238;2023-03-20T10:50:54;4.00;;;2.53;;
1082;SDS011;530;51.448;7.238;2023-03-20T10:53:26;3.87;;;2.60;;
1082;SDS011;530;51.448;7.238;2023-03-20T10:56:07;7.40;;;2.43;;
1082;SDS011;530;51.448;7.238;2023-03-20T10:58:38;7.43;;;2.67;;
1082;SDS011;530;51.448;7.238;2023-03-20T11:01:05;7.50;;;2.53;;
1082;SDS011;530;51.448;7.238;2023-03-20T11:03:32;6.67;;;2.80;;
1082;SDS011;530;51.448;7.238;2023-03-20T11:08:50;3.50;;;3.20;;
1082;SDS011;530;51.448;7.238;2023-03-20T11:11:21;6.43;;;2.80;;
1082;SDS011;530;51.448;7.238;2023-03-20T11:13:52;3.77;;;3.03;;
1082;SDS011;530;51.448;7.238;2023-03-20T11:16:22;3.70;;;2.50;;
1082;SDS011;530;51.448;7.238;2023-03-20T11:18:50;5.17;;;3.13;;
1082;SDS011;530;51.448;7.238;2023-03-20T11:21:25;5.43;;;2.70;;
1082;SDS011;530;51.448;7.238;2023-03-20T11:23:53;6.20;;;3.10;;
1082;SDS011;530;51.448;7.238;2023-03-20T11:26:27;6.70;;;3.70;;
1082;SDS011;530;51.448;7.238;2023-03-20T11:28:56;4.17;;;3.10;;
1082;SDS011;530;51.448;7.238;2023-03-20T11:34:00;5.80;;;2.70;;
1082;SDS011;530;51.448;7.238;2023-03-20T11:36:39;3.33;;;2.40;;
1082;SDS011;530;51.448;7.238;2023-03-20T11:39:15;5.23;;;3.30;;
1082;SDS011;530;51.448;7.238;2023-03-20T11:41:51;5.80;;;3.03;;
1082;SDS011;530;51.448;7.238;2023-03-20T11:46:59;5.00;;;2.63;;
1082;SDS011;530;51.448;7.238;2023-03-20T11:49:53;5.43;;;3.13;;
1082;SDS011;530;51.448;7.238;2023-03-20T11:52:21;3.23;;;2.53;;
1082;SDS011;530;51.448;7.238;2023-03-20T11:54:59;6.30;;;3.20;;
1082;SDS011;530;51.448;7.238;2023-03-20T11:57:33;6.33;;;3.43;;
1082;SDS011;530;51.448;7.238;2023-03-20T12:00:19;4.93;;;3.27;;
1082;SDS011;530;51.448;7.238;2023-03-20T12:02:47;5.93;;;2.83;;
1082;SDS011;530;51.448;7.238;2023-03-20T12:05:32;5.73;;;3.13;;
1082;SDS011;530;51.448;7.238;2023-03-20T12:08:06;5.80;;;3.50;;
1082;SDS011;530;51.448;7.238;2023-03-20T12:10:43;5.07;;;2.70;;
1082;SDS011;530;51.448;7.238;2023-03-20T12:13:15;4.23;;;2.70;;
1082;SDS011;530;51.448;7.238;2023-03-20T12:15:54;5.53;;;3.00;;
1082;SDS011;530;51.448;7.238;2023-03-20T12:23:59;7.23;;;2.63;;
1082;SDS011;530;51.448;7.238;2023-03-20T12:26:53;5.20;;;2.83;;
1082;SDS011;530;51.448;7.238;2023-03-20T12:29:45;4.83;;;2.80;;
1082;SDS011;530;51.448;7.238;2023-03-20T12:32:23;5.27;;;2.87;;
1082;SDS011;530;51.448;7.238;2023-03-20T12:35:11;6.20;;;2.97;;
1082;SDS011;530;51.448;7.238;2023-03-20T12:37:37;5.27;;;3.67;;
1082;SDS011;530;51.448;7.238;2023-03-20T12:40:03;7.60;;;3.20;;
1082;SDS011;530;51.448;7.238;2023-03-20T12:45:15;5.00;;;3.63;;
1082;SDS011;530;51.448;7.238;2023-03-20T13:01:14;6.90;;;3.57;;
1082;SDS011;530;51.448;7.238;2023-03-20T13:09:36;6.10;;;3.47;;
1082;SDS011;530;51.448;7.238;2023-03-20T13:18:02;2.53;;;2.33;;
1082;SDS011;530;51.448;7.238;2023-03-20T13:20:51;5.17;;;2.90;;
1082;SDS011;530;51.448;7.238;2023-03-20T13:23:22;4.43;;;2.47;;
1082;SDS011;530;51.448;7.238;2023-03-20T13:26:06;5.50;;;3.20;;
1082;SDS011;530;51.448;7.238;2023-03-20T13:28:44;3.77;;;2.70;;
1082;SDS011;530;51.448;7.238;2023-03-20T13:34:05;4.50;;;2.13;;
1082;SDS011;530;51.448;7.238;2023-03-20T13:40:20;3.90;;;2.97;;
1082;SDS011;530;51.448;7.238;2023-03-20T13:42:28;4.30;;;2.90;;
1082;SDS011;530;51.448;7.238;2023-03-20T13:45:04;4.30;;;2.63;;
1082;SDS011;530;51.448;7.238;2023-03-20T13:47:42;5.47;;;2.43;;
1082;SDS011;530;51.448;7.238;2023-03-20T13:53:23;2.80;;;2.30;;
1082;SDS011;530;51.448;7.238;2023-03-20T13:56:03;4.97;;;2.43;;
1082;SDS011;530;51.448;7.238;2023-03-20T13:58:40;4.70;;;2.60;;
1082;SDS011;530;51.448;7.238;2023-03-20T14:04:32;4.00;;;2.90;;
1082;SDS011;530;51.448;7.238;2023-03-20T14:06:58;5.80;;;3.33;;
1082;SDS011;530;51.448;7.238;2023-03-20T14:09:31;6.13;;;3.50;;
1082;SDS011;530;51.448;7.238;2023-03-20T14:12:00;7.23;;;2.70;;
1082;SDS011;530;51.448;7.238;2023-03-20T14:14:41;7.53;;;3.50;;
1082;SDS011;530;51.448;7.238;2023-03-20T14:17:14;6.23;;;3.20;;
1082;SDS011;530;51.448;7.238;2023-03-20T14:19:46;4.03;;;3.20;;
1082;SDS011;530;51.448;7.238;2023-03-20T14:22:21;7.73;;;4.00;;
1082;SDS011;530;51.448;7.238;2023-03-20T14:24:59;4.47;;;2.83;;
1082;SDS011;530;51.448;7.238;2023-03-20T14:27:33;5.13;;;3.27;;
1082;SDS011;530;51.448;7.238;2023-03-20T14:32:58;4.23;;;2.87;;
1082;SDS011;530;51.448;7.238;2023-03-20T14:35:27;4.23;;;3.27;;
1082;SDS011;530;51.448;7.238;2023-03-20T14:40:42;5.50;;;3.53;;
1082;SDS011;530;51.448;7.238;2023-03-20T14:49:29;4.30;;;3.10;;
1082;SDS011;530;51.448;7.238;2023-03-20T14:52:25;6.67;;;4.07;;
1082;SDS011;530;51.448;7.238;2023-03-20T14:55:23;5.13;;;4.17;;
1082;SDS011;530;51.448;7.238;2023-03-20T14:57:54;7.20;;;3.53;;
1082;SDS011;530;51.448;7.238;2023-03-20T15:00:21;6.00;;;3.50;;
1082;SDS011;530;51.448;7.238;2023-03-20T15:03:01;6.30;;;3.47;;
1082;SDS011;530;51.448;7.238;2023-03-20T15:05:31;4.53;;;3.47;;
1082;SDS011;530;51.448;7.238;2023-03-20T15:08:05;6.97;;;3.57;;
1082;SDS011;530;51.448;7.238;2023-03-20T15:10:44;5.60;;;3.77;;
1082;SDS011;530;51.448;7.238;2023-03-20T15:13:14;6.50;;;4.10;;
1082;SDS011;530;51.448;7.238;2023-03-20T15:15:53;8.03;;;4.60;;
1082;SDS011;530;51.448;7.238;2023-03-20T15:18:26;5.07;;;3.47;;
1082;SDS011;530;51.448;7.238;2023-03-20T15:20:54;4.30;;;3.53;;
1082;SDS011;530;51.448;7.238;2023-03-20T15:23:21;5.90;;;3.63;;
1082;SDS011;530;51.448;7.238;2023-03-20T15:25:48;3.80;;;3.50;;
1082;SDS011;530;51.448;7.238;2023-03-20T15:28:18;4.60;;;3.60;;
1082;SDS011;530;51.448;7.238;2023-03-20T15:30:47;7.43;;;4.70;;
1082;SDS011;530;51.448;7.238;2023-03-20T15:36:14;6.70;;;3.97;;
1082;SDS011;530;51.448;7.238;2023-03-20T15:38:46;8.80;;;3.97;;
1082;SDS011;530;51.448;7.238;2023-03-20T15:41:26;6.80;;;4.47;;
1082;SDS011;530;51.448;7.238;2023-03-20T15:44:00;12.43;;;6.80;;
1082;SDS011;530;51.448;7.238;2023-03-20T15:46:28;6.00;;;4.43;;
1082;SDS011;530;51.448;7.238;2023-03-20T15:48:53;9.03;;;4.90;;
1082;SDS011;530;51.448;7.238;2023-03-20T15:51:20;6.10;;;4.27;;
1082;SDS011;530;51.448;7.238;2023-03-20T15:53:50;11.17;;;5.30;;
1082;SDS011;530;51.448;7.238;2023-03-20T15:56:16;8.93;;;5.30;;
1082;SDS011;530;51.448;7.238;2023-03-20T15:58:44;11.37;;;5.50;;
1082;SDS011;530;51.448;7.238;2023-03-20T16:01:15;7.03;;;5.40;;
1082;SDS011;530;51.448;7.238;2023-03-20T16:03:43;8.87;;;5.20;;
1082;SDS011;530;51.448;7.238;2023-03-20T16:06:10;6.33;;;4.30;;
1082;SDS011;530;51.448;7.238;2023-03-20T16:08:39;6.80;;;4.73;;
1082;SDS011;530;51.448;7.238;2023-03-20T16:13:33;10.63;;;5.40;;
1082;SDS011;530;51.448;7.238;2023-03-20T16:16:05;7.70;;;5.10;;
1082;SDS011;530;51.448;7.238;2023-03-20T16:18:35;8.63;;;5.07;;
1082;SDS011;530;51.448;7.238;2023-03-20T16:21:04;8.23;;;6.43;;
1082;SDS011;530;51.448;7.238;2023-03-20T16:26:02;10.27;;;5.30;;
1082;SDS011;530;51.448;7.238;2023-03-20T16:28:30;9.57;;;6.83;;
1082;SDS011;530;51.448;7.238;2023-03-20T16:31:06;8.33;;;5.67;;
1082;SDS011;530;51.448;7.238;2023-03-20T16:33:46;10.20;;;5.20;;
1082;SDS011;530;51.448;7.238;2023-03-20T16:36:16;8.23;;;4.97;;
1082;SDS011;530;51.448;7.238;2023-03-20T16:43:58;7.13;;;4.77;;
1082;SDS011;530;51.448;7.238;2023-03-20T16:46:28;10.37;;;4.20;;
1082;SDS011;530;51.448;7.238;2023-03-20T16:49:06;7.07;;;4.50;;
1082;SDS011;530;51.448;7.238;2023-03-20T16:51:39;5.57;;;4.20;;
1082;SDS011;530;51.448;7.238;2023-03-20T16:54:12;7.50;;;4.37;;
1082;SDS011;530;51.448;7.238;2023-03-20T16:56:47;7.40;;;4.47;;
1082;SDS011;530;51.448;7.238;2023-03-20T16:59:17;6.47;;;4.23;;
1082;SDS011;530;51.448;7.238;2023-03-20T17:01:45;6.37;;;4.17;;
1082;SDS011;530;51.448;7.238;2023-03-20T17:04:32;7.60;;;3.80;;
1082;SDS011;530;51.448;7.238;2023-03-20T17:07:20;5.83;;;4.30;;
1082;SDS011;530;51.448;7.238;2023-03-20T17:12:53;5.80;;;3.83;;
1082;SDS011;530;51.448;7.238;2023-03-20T17:15:20;11.90;;;4.53;;
1082;SDS011;530;51.448;7.238;2023-03-20T17:17:47;4.60;;;3.77;;
1082;SDS011;530;51.448;7.238;2023-03-20T17:20:16;8.07;;;4.73;;
1082;SDS011;530;51.448;7.238;2023-03-20T17:22:44;8.23;;;4.80;;
1082;SDS011;530;51.448;7.238;2023-03-20T17:25:10;7.10;;;4.47;;
1082;SDS011;530;51.448;7.238;2023-03-20T17:27:36;6.67;;;4.70;;
1082;SDS011;530;51.448;7.238;2023-03-20T17:30:04;9.07;;;4.50;;
1082;SDS011;530;51.448;7.238;2023-03-20T17:32:31;7.30;;;3.97;;
1082;SDS011;530;51.448;7.238;2023-03-20T17:34:57;6.80;;;4.10;;
1082;SDS011;530;51.448;7.238;2023-03-20T17:37:26;8.03;;;4.50;;
1082;SDS011;530;51.448;7.238;2023-03-20T17:39:53;7.03;;;4.90;;
1082;SDS011;530;51.448;7.238;2023-03-20T17:42:20;6.87;;;5.10;;
1082;SDS011;530;51.448;7.238;2023-03-20T17:44:48;8.80;;;5.30;;
1082;SDS011;530;51.448;7.238;2023-03-20T17:47:15;14.57;;;5.40;;
1082;SDS011;530;51.448;7.238;2023-03-20T17:49:43;7.57;;;4.50;;
1082;SDS011;530;51.448;7.238;2023-03-20T17:52:13;5.73;;;4.20;;
1082;SDS011;530;51.448;7.238;2023-03-20T17:54:41;5.87;;;4.60;;
1082;SDS011;530;51.448;7.238;2023-03-20T18:00:03;9.10;;;5.30;;
1082;SDS011;530;51.448;7.238;2023-03-20T18:02:31;9.13;;;5.10;;
1082;SDS011;530;51.448;7.238;2023-03-20T18:04:57;8.50;;;4.57;;
1082;SDS011;530;51.448;7.238;2023-03-20T18:07:22;7.53;;;3.97;;